Decoded Metar for KMCX ( in ) (IATA:) | Meteo·Mobile Aviation Weather
aviador You're here:

KMCX Decoded Metar

in
Report Time2019-10-19 22:15:00
UTC Time2019-10-19 22:26:13
Flight Rules vfr VFR
Wind170° at 05 kt
W.Decomp.*RWY 18: 4.9 kt HW 0.9 kt LCW
Visibility9999 m
Phenomena:N/A
Clouds:N/A
Expected CloudBase > 5,600 ft AGL from Temp-Dew spread
CeilingNone
Temp19°C
Dew Point05°C (40% RH)
AAT16.1°C
QNH1007 hPa
Raw Report
KMCX 192215Z AUTO 17005KT 10SM CLR 19/05 A2974 RMK AO2
T01870046=

Extra information for KMCX:More info

Social comments